Accueil
METAR-TAF:

METAR-TAF

Aéroports :

Thoothukudi, Inde

latitude: 8-43-27N, longitude: 78-01-33E, altitude: 39 m

Observation

Le bulletin a été fait il y a 10 heures et 35 minutes, à 12:00 UTC
Vent 10 kt de est/nord-est avec des rafales jusqu'à 20 kt
Température 28°C
Humidité 74%
Pression 1012 hPa
Visibilité: 6000 m
Quelques nuages à une hauteur de 2000 ft

METAR: VOTK 221200Z 07010G20KT 6000 FEW020 28/23 Q1012 NOSIG

Heure: 04:05 (22:35 UTC)


TAF: absent

Observations et prévisions météorologiques de plus de 4000 aéroports (messages METAR et TAF).

Les stations disponibles sont représentées par des disques jaunes et rouges sur la carte.

Passer la souris dessus pour voir le nom de la station.

Cliquer dessus pour voir les observations et prévisions météorologiques.

Pour changer de carte: cliquez sur les boutons verts avec une croix noire pour zoomer, sur le bouton vert avec un tiret pour effectuer un zoom arrière, ou sur les flèches vertes pour les cartes adjacentes.


METAR-TAF: